sensor_id;sensor_type;location;lat;lon;timestamp;pressure;altitude;pressure_sealevel;temperature;humidity
26043;BME280;13818;52.156;5.382;2023-03-12T00:00:31;100861.78;;;1.98;100.00
26043;BME280;13818;52.156;5.382;2023-03-12T00:02:58;100860.84;;;1.99;100.00
26043;BME280;13818;52.156;5.382;2023-03-12T00:05:24;100863.50;;;1.99;100.00
26043;BME280;13818;52.156;5.382;2023-03-12T00:07:51;100849.47;;;2.00;100.00
26043;BME280;13818;52.156;5.382;2023-03-12T00:10:18;100861.75;;;2.00;100.00
26043;BME280;13818;52.156;5.382;2023-03-12T00:12:45;100847.72;;;1.98;100.00
26043;BME280;13818;52.156;5.382;2023-03-12T00:15:12;100852.97;;;1.99;100.00
26043;BME280;13818;52.156;5.382;2023-03-12T00:17:39;100852.97;;;2.01;100.00
26043;BME280;13818;52.156;5.382;2023-03-12T00:20:07;100852.06;;;2.02;100.00
26043;BME280;13818;52.156;5.382;2023-03-12T00:22:34;100845.84;;;2.10;100.00
26043;BME280;13818;52.156;5.382;2023-03-12T00:25:01;100839.69;;;2.11;100.00
26043;BME280;13818;52.156;5.382;2023-03-12T00:27:28;100837.97;;;2.12;100.00
26043;BME280;13818;52.156;5.382;2023-03-12T00:29:55;100837.06;;;2.15;100.00
26043;BME280;13818;52.156;5.382;2023-03-12T00:32:22;100834.38;;;2.18;100.00
26043;BME280;13818;52.156;5.382;2023-03-12T00:34:50;100834.41;;;2.16;100.00
26043;BME280;13818;52.156;5.382;2023-03-12T00:37:17;100836.19;;;2.13;100.00
26043;BME280;13818;52.156;5.382;2023-03-12T00:39:44;100846.66;;;2.17;100.00
26043;BME280;13818;52.156;5.382;2023-03-12T00:42:11;100839.69;;;2.15;100.00
26043;BME280;13818;52.156;5.382;2023-03-12T00:44:38;100830.84;;;2.19;100.00
26043;BME280;13818;52.156;5.382;2023-03-12T00:47:06;100838.75;;;2.19;100.00
26043;BME280;13818;52.156;5.382;2023-03-12T00:49:33;100828.22;;;2.19;100.00
26043;BME280;13818;52.156;5.382;2023-03-12T00:51:59;100825.59;;;2.19;100.00
26043;BME280;13818;52.156;5.382;2023-03-12T00:54:26;100824.69;;;2.21;100.00
26043;BME280;13818;52.156;5.382;2023-03-12T00:56:52;100825.56;;;2.23;100.00
26043;BME280;13818;52.156;5.382;2023-03-12T00:59:19;100829.09;;;2.21;100.00
26043;BME280;13818;52.156;5.382;2023-03-12T01:01:45;100823.84;;;2.21;100.00
26043;BME280;13818;52.156;5.382;2023-03-12T01:04:13;100821.22;;;2.18;100.00
26043;BME280;13818;52.156;5.382;2023-03-12T01:06:41;100818.63;;;2.16;100.00
26043;BME280;13818;52.156;5.382;2023-03-12T01:09:08;100805.44;;;2.18;100.00
26043;BME280;13818;52.156;5.382;2023-03-12T01:11:35;100787.09;;;2.15;100.00
26043;BME280;13818;52.156;5.382;2023-03-12T01:14:04;100794.16;;;2.09;100.00
26043;BME280;13818;52.156;5.382;2023-03-12T01:16:30;100791.53;;;2.09;100.00
26043;BME280;13818;52.156;5.382;2023-03-12T01:18:58;100796.78;;;2.08;100.00
26043;BME280;13818;52.156;5.382;2023-03-12T01:21:27;100789.75;;;2.10;100.00
26043;BME280;13818;52.156;5.382;2023-03-12T01:23:54;100792.34;;;2.15;100.00
26043;BME280;13818;52.156;5.382;2023-03-12T01:26:21;100789.72;;;2.15;100.00
26043;BME280;13818;52.156;5.382;2023-03-12T01:28:48;100793.22;;;2.14;100.00
26043;BME280;13818;52.156;5.382;2023-03-12T01:31:16;100801.97;;;2.16;100.00
26043;BME280;13818;52.156;5.382;2023-03-12T01:33:44;100803.72;;;2.15;100.00
26043;BME280;13818;52.156;5.382;2023-03-12T01:36:14;100801.97;;;2.17;100.00
26043;BME280;13818;52.156;5.382;2023-03-12T01:38:43;100806.16;;;2.32;100.00
26043;BME280;13818;52.156;5.382;2023-03-12T01:41:09;100790.44;;;2.27;100.00
26043;BME280;13818;52.156;5.382;2023-03-12T01:43:39;100786.09;;;2.23;100.00
26043;BME280;13818;52.156;5.382;2023-03-12T01:48:49;100778.19;;;2.25;100.00
26043;BME280;13818;52.156;5.382;2023-03-12T01:51:19;100781.69;;;2.27;100.00
26043;BME280;13818;52.156;5.382;2023-03-12T01:53:50;100777.28;;;2.24;100.00
26043;BME280;13818;52.156;5.382;2023-03-12T01:56:19;100775.53;;;2.26;100.00
26043;BME280;13818;52.156;5.382;2023-03-12T01:58:49;100774.63;;;2.29;100.00
26043;BME280;13818;52.156;5.382;2023-03-12T02:01:18;100764.94;;;2.33;100.00
26043;BME280;13818;52.156;5.382;2023-03-12T02:03:47;100759.69;;;2.31;100.00
26043;BME280;13818;52.156;5.382;2023-03-12T02:06:18;100770.16;;;2.34;100.00
26043;BME280;13818;52.156;5.382;2023-03-12T02:08:48;100751.75;;;2.34;100.00
26043;BME280;13818;52.156;5.382;2023-03-12T02:11:16;100749.16;;;2.33;100.00
26043;BME280;13818;52.156;5.382;2023-03-12T02:13:42;100751.81;;;2.31;100.00
26043;BME280;13818;52.156;5.382;2023-03-12T02:16:09;100746.53;;;2.33;100.00
26043;BME280;13818;52.156;5.382;2023-03-12T02:18:36;100738.66;;;2.31;100.00
26043;BME280;13818;52.156;5.382;2023-03-12T02:21:11;100739.50;;;2.35;100.00
26043;BME280;13818;52.156;5.382;2023-03-12T02:23:43;100728.03;;;2.36;100.00
26043;BME280;13818;52.156;5.382;2023-03-12T02:26:13;100723.69;;;2.33;100.00
26043;BME280;13818;52.156;5.382;2023-03-12T02:28:41;100727.19;;;2.35;100.00
26043;BME280;13818;52.156;5.382;2023-03-12T02:31:12;100731.59;;;2.35;100.00
26043;BME280;13818;52.156;5.382;2023-03-12T02:33:39;100728.91;;;2.38;100.00
26043;BME280;13818;52.156;5.382;2023-03-12T02:36:06;100729.69;;;2.44;100.00
26043;BME280;13818;52.156;5.382;2023-03-12T02:38:41;100711.16;;;2.54;100.00
26043;BME280;13818;52.156;5.382;2023-03-12T02:41:17;100713.81;;;2.52;100.00
26043;BME280;13818;52.156;5.382;2023-03-12T02:43:47;100702.41;;;2.52;100.00
26043;BME280;13818;52.156;5.382;2023-03-12T02:46:14;100713.81;;;2.51;100.00
26043;BME280;13818;52.156;5.382;2023-03-12T02:48:41;100713.78;;;2.54;100.00
26043;BME280;13818;52.156;5.382;2023-03-12T02:51:07;100712.91;;;2.55;100.00
26043;BME280;13818;52.156;5.382;2023-03-12T02:53:34;100704.03;;;2.60;100.00
26043;BME280;13818;52.156;5.382;2023-03-12T02:56:00;100688.28;;;2.57;100.00
26043;BME280;13818;52.156;5.382;2023-03-12T02:58:29;100685.59;;;2.60;100.00
26043;BME280;13818;52.156;5.382;2023-03-12T03:00:55;100687.28;;;2.65;100.00
26043;BME280;13818;52.156;5.382;2023-03-12T03:03:21;100682.88;;;2.67;100.00
26043;BME280;13818;52.156;5.382;2023-03-12T03:05:48;100668.88;;;2.63;100.00
26043;BME280;13818;52.156;5.382;2023-03-12T03:08:16;100670.69;;;2.59;100.00
26043;BME280;13818;52.156;5.382;2023-03-12T03:10:42;100668.91;;;2.62;100.00
26043;BME280;13818;52.156;5.382;2023-03-12T03:13:09;100665.41;;;2.63;100.00
26043;BME280;13818;52.156;5.382;2023-03-12T03:15:36;100669.66;;;2.71;100.00
26043;BME280;13818;52.156;5.382;2023-03-12T03:18:04;100663.53;;;2.69;100.00
26043;BME280;13818;52.156;5.382;2023-03-12T03:20:31;100665.16;;;2.78;100.00
26043;BME280;13818;52.156;5.382;2023-03-12T03:22:57;100658.09;;;2.79;100.00
26043;BME280;13818;52.156;5.382;2023-03-12T03:25:24;100657.41;;;2.69;100.00
26043;BME280;13818;52.156;5.382;2023-03-12T03:27:51;100652.97;;;2.71;100.00
26043;BME280;13818;52.156;5.382;2023-03-12T03:30:17;100647.69;;;2.71;100.00
26043;BME280;13818;52.156;5.382;2023-03-12T03:32:47;100631.09;;;2.67;100.00
26043;BME280;13818;52.156;5.382;2023-03-12T03:35:13;100638.09;;;2.70;100.00
26043;BME280;13818;52.156;5.382;2023-03-12T03:37:40;100614.44;;;2.67;100.00
26043;BME280;13818;52.156;5.382;2023-03-12T03:40:07;100627.56;;;2.68;100.00
26043;BME280;13818;52.156;5.382;2023-03-12T03:42:36;100629.38;;;2.66;100.00
26043;BME280;13818;52.156;5.382;2023-03-12T03:45:03;100621.34;;;2.74;100.00
26043;BME280;13818;52.156;5.382;2023-03-12T03:47:30;100614.38;;;2.71;100.00
26043;BME280;13818;52.156;5.382;2023-03-12T03:49:57;100606.53;;;2.70;100.00
26043;BME280;13818;52.156;5.382;2023-03-12T03:52:24;100606.53;;;2.68;100.00
26043;BME280;13818;52.156;5.382;2023-03-12T03:54:51;100593.31;;;2.71;100.00
26043;BME280;13818;52.156;5.382;2023-03-12T03:57:18;100585.41;;;2.73;100.00
26043;BME280;13818;52.156;5.382;2023-03-12T03:59:44;100595.03;;;2.74;100.00
26043;BME280;13818;52.156;5.382;2023-03-12T04:02:11;100606.31;;;2.81;100.00
26043;BME280;13818;52.156;5.382;2023-03-12T04:04:37;100603.47;;;2.93;100.00
26043;BME280;13818;52.156;5.382;2023-03-12T04:07:05;100616.41;;;3.05;100.00
26043;BME280;13818;52.156;5.382;2023-03-12T04:09:32;100608.34;;;3.13;100.00
26043;BME280;13818;52.156;5.382;2023-03-12T04:11:58;100610.28;;;3.03;100.00
26043;BME280;13818;52.156;5.382;2023-03-12T04:14:25;100601.69;;;2.93;100.00
26043;BME280;13818;52.156;5.382;2023-03-12T04:16:51;100610.47;;;2.94;100.00
26043;BME280;13818;52.156;5.382;2023-03-12T04:19:18;100610.31;;;3.02;100.00
26043;BME280;13818;52.156;5.382;2023-03-12T04:21:44;100594.44;;;3.05;100.00
26043;BME280;13818;52.156;5.382;2023-03-12T04:24:14;100594.56;;;3.00;100.00
26043;BME280;13818;52.156;5.382;2023-03-12T04:26:41;100595.44;;;2.99;100.00
26043;BME280;13818;52.156;5.382;2023-03-12T04:29:08;100591.06;;;2.98;100.00
26043;BME280;13818;52.156;5.382;2023-03-12T04:31:35;100584.19;;;2.92;100.00
26043;BME280;13818;52.156;5.382;2023-03-12T04:34:01;100591.16;;;2.95;100.00
26043;BME280;13818;52.156;5.382;2023-03-12T04:36:27;100589.41;;;2.94;100.00
26043;BME280;13818;52.156;5.382;2023-03-12T04:38:54;100576.13;;;2.99;100.00
26043;BME280;13818;52.156;5.382;2023-03-12T04:41:22;100571.78;;;2.98;100.00
26043;BME280;13818;52.156;5.382;2023-03-12T04:43:49;100572.59;;;3.00;100.00
26043;BME280;13818;52.156;5.382;2023-03-12T04:46:15;100565.72;;;2.94;100.00
26043;BME280;13818;52.156;5.382;2023-03-12T04:48:42;100561.34;;;2.93;100.00
26043;BME280;13818;52.156;5.382;2023-03-12T04:51:08;100564.03;;;2.88;100.00
26043;BME280;13818;52.156;5.382;2023-03-12T04:53:35;100553.66;;;2.81;100.00
26043;BME280;13818;52.156;5.382;2023-03-12T04:56:01;100542.38;;;2.74;100.00
26043;BME280;13818;52.156;5.382;2023-03-12T04:58:29;100534.53;;;2.71;100.00
26043;BME280;13818;52.156;5.382;2023-03-12T05:00:56;100518.00;;;2.64;100.00
26043;BME280;13818;52.156;5.382;2023-03-12T05:03:22;100513.66;;;2.62;100.00
26043;BME280;13818;52.156;5.382;2023-03-12T05:05:49;100514.53;;;2.64;100.00
26043;BME280;13818;52.156;5.382;2023-03-12T05:08:15;100514.53;;;2.64;100.00
26043;BME280;13818;52.156;5.382;2023-03-12T05:10:42;100505.72;;;2.63;100.00
26043;BME280;13818;52.156;5.382;2023-03-12T05:13:15;100510.97;;;2.65;100.00
26043;BME280;13818;52.156;5.382;2023-03-12T05:15:44;100503.97;;;2.65;100.00
26043;BME280;13818;52.156;5.382;2023-03-12T05:18:12;100505.72;;;2.63;100.00
26043;BME280;13818;52.156;5.382;2023-03-12T05:20:38;100489.13;;;2.61;100.00
26043;BME280;13818;52.156;5.382;2023-03-12T05:23:05;100490.91;;;2.59;100.00
26043;BME280;13818;52.156;5.382;2023-03-12T05:25:31;100490.84;;;2.62;100.00
26043;BME280;13818;52.156;5.382;2023-03-12T05:27:58;100503.09;;;2.63;100.00
26043;BME280;13818;52.156;5.382;2023-03-12T05:30:24;100490.84;;;2.62;100.00
26043;BME280;13818;52.156;5.382;2023-03-12T05:32:52;100479.41;;;2.63;100.00
26043;BME280;13818;52.156;5.382;2023-03-12T05:35:19;100494.31;;;2.64;100.00
26043;BME280;13818;52.156;5.382;2023-03-12T05:37:45;100490.84;;;2.64;100.00
26043;BME280;13818;52.156;5.382;2023-03-12T05:40:12;100488.16;;;2.65;100.00
26043;BME280;13818;52.156;5.382;2023-03-12T05:42:39;100490.69;;;2.71;100.00
26043;BME280;13818;52.156;5.382;2023-03-12T05:45:06;100480.19;;;2.68;100.00
26043;BME280;13818;52.156;5.382;2023-03-12T05:47:33;100481.03;;;2.70;100.00
26043;BME280;13818;52.156;5.382;2023-03-12T05:50:01;100476.69;;;2.69;100.00
26043;BME280;13818;52.156;5.382;2023-03-12T05:52:27;100467.03;;;2.68;100.00
26043;BME280;13818;52.156;5.382;2023-03-12T05:54:54;100465.22;;;2.72;100.00
26043;BME280;13818;52.156;5.382;2023-03-12T05:57:20;100464.38;;;2.71;100.00
26043;BME280;13818;52.156;5.382;2023-03-12T05:59:46;100472.22;;;2.73;100.00
26043;BME280;13818;52.156;5.382;2023-03-12T06:02:13;100470.38;;;2.78;100.00
26043;BME280;13818;52.156;5.382;2023-03-12T06:04:39;100470.38;;;2.78;100.00
26043;BME280;13818;52.156;5.382;2023-03-12T06:07:07;100471.22;;;2.79;100.00
26043;BME280;13818;52.156;5.382;2023-03-12T06:09:34;100469.44;;;2.81;100.00
26043;BME280;13818;52.156;5.382;2023-03-12T06:12:00;100451.72;;;2.89;100.00
26043;BME280;13818;52.156;5.382;2023-03-12T06:14:27;100460.44;;;2.91;100.00
26043;BME280;13818;52.156;5.382;2023-03-12T06:16:54;100475.31;;;2.93;100.00
26043;BME280;13818;52.156;5.382;2023-03-12T06:19:20;100479.78;;;2.90;100.00
26043;BME280;13818;52.156;5.382;2023-03-12T06:21:47;100463.97;;;2.90;100.00
26043;BME280;13818;52.156;5.382;2023-03-12T06:24:14;100477.06;;;2.95;100.00
26043;BME280;13818;52.156;5.382;2023-03-12T06:26:41;100481.59;;;2.88;100.00
26043;BME280;13818;52.156;5.382;2023-03-12T06:29:07;100464.06;;;2.87;100.00
26043;BME280;13818;52.156;5.382;2023-03-12T06:31:34;100465.78;;;2.88;100.00
26043;BME280;13818;52.156;5.382;2023-03-12T06:34:00;100463.19;;;2.85;100.00
26043;BME280;13818;52.156;5.382;2023-03-12T06:36:27;100467.63;;;2.84;100.00
26043;BME280;13818;52.156;5.382;2023-03-12T06:38:55;100465.94;;;2.80;100.00
26043;BME280;13818;52.156;5.382;2023-03-12T06:41:23;100465.22;;;2.72;100.00
26043;BME280;13818;52.156;5.382;2023-03-12T06:43:49;100461.69;;;2.73;100.00
26043;BME280;13818;52.156;5.382;2023-03-12T06:46:18;100469.63;;;2.71;100.00
26043;BME280;13818;52.156;5.382;2023-03-12T06:48:46;100459.03;;;2.74;100.00
26043;BME280;13818;52.156;5.382;2023-03-12T06:51:15;100450.44;;;2.66;100.00
26043;BME280;13818;52.156;5.382;2023-03-12T06:53:42;100440.63;;;2.73;100.00
26043;BME280;13818;52.156;5.382;2023-03-12T06:56:08;100434.53;;;2.72;100.00
26043;BME280;13818;52.156;5.382;2023-03-12T06:58:36;100439.72;;;2.75;100.00
26043;BME280;13818;52.156;5.382;2023-03-12T07:01:04;100436.44;;;2.64;100.00
26043;BME280;13818;52.156;5.382;2023-03-12T07:03:30;100425.06;;;2.62;100.00
26043;BME280;13818;52.156;5.382;2023-03-12T07:05:57;100428.59;;;2.61;100.00
26043;BME280;13818;52.156;5.382;2023-03-12T07:08:25;100416.31;;;2.62;100.00
26043;BME280;13818;52.156;5.382;2023-03-12T07:10:53;100407.59;;;2.58;100.00
26043;BME280;13818;52.156;5.382;2023-03-12T07:13:20;100398.78;;;2.60;100.00
26043;BME280;13818;52.156;5.382;2023-03-12T07:15:48;100392.63;;;2.62;100.00
26043;BME280;13818;52.156;5.382;2023-03-12T07:18:15;100390.03;;;2.60;100.00
26043;BME280;13818;52.156;5.382;2023-03-12T07:20:42;100399.63;;;2.63;100.00
26043;BME280;13818;52.156;5.382;2023-03-12T07:23:09;100394.25;;;2.67;100.00
26043;BME280;13818;52.156;5.382;2023-03-12T07:25:37;100401.16;;;2.73;100.00
26043;BME280;13818;52.156;5.382;2023-03-12T07:28:04;100400.22;;;2.75;100.00
26043;BME280;13818;52.156;5.382;2023-03-12T07:30:31;100403.00;;;2.69;100.00
26043;BME280;13818;52.156;5.382;2023-03-12T07:33:00;100411.66;;;2.74;100.00
26043;BME280;13818;52.156;5.382;2023-03-12T07:35:28;100401.06;;;2.78;100.00
26043;BME280;13818;52.156;5.382;2023-03-12T07:37:55;100416.78;;;2.81;100.00
26043;BME280;13818;52.156;5.382;2023-03-12T07:40:22;100421.06;;;2.86;100.00
26043;BME280;13818;52.156;5.382;2023-03-12T07:42:49;100425.53;;;2.83;100.00
26043;BME280;13818;52.156;5.382;2023-03-12T07:45:16;100451.59;;;2.95;100.00
26043;BME280;13818;52.156;5.382;2023-03-12T07:47:43;100436.56;;;3.00;100.00
26043;BME280;13818;52.156;5.382;2023-03-12T07:50:12;100435.66;;;3.01;100.00
26043;BME280;13818;52.156;5.382;2023-03-12T07:52:38;100450.59;;;3.01;100.00
26043;BME280;13818;52.156;5.382;2023-03-12T07:55:06;100453.16;;;3.05;100.00
26043;BME280;13818;52.156;5.382;2023-03-12T07:57:32;100456.28;;;3.21;100.00
26043;BME280;13818;52.156;5.382;2023-03-12T07:59:59;100441.34;;;3.23;100.00
26043;BME280;13818;52.156;5.382;2023-03-12T08:02:25;100452.84;;;3.19;100.00
26043;BME280;13818;52.156;5.382;2023-03-12T08:04:52;100455.34;;;3.25;100.00
26043;BME280;13818;52.156;5.382;2023-03-12T08:07:20;100446.38;;;3.34;100.00
26043;BME280;13818;52.156;5.382;2023-03-12T08:09:46;100437.72;;;3.29;100.00
26043;BME280;13818;52.156;5.382;2023-03-12T08:12:13;100429.53;;;3.40;100.00
26043;BME280;13818;52.156;5.382;2023-03-12T08:14:40;100432.13;;;3.43;100.00
26043;BME280;13818;52.156;5.382;2023-03-12T08:17:06;100428.13;;;3.63;100.00
26043;BME280;13818;52.156;5.382;2023-03-12T08:19:33;100429.03;;;3.63;100.00
26043;BME280;13818;52.156;5.382;2023-03-12T08:21:59;100424.84;;;3.54;100.00
26043;BME280;13818;52.156;5.382;2023-03-12T08:24:27;100420.19;;;3.64;100.00
26043;BME280;13818;52.156;5.382;2023-03-12T08:26:53;100428.03;;;3.67;100.00
26043;BME280;13818;52.156;5.382;2023-03-12T08:29:20;100437.53;;;3.74;100.00
26043;BME280;13818;52.156;5.382;2023-03-12T08:31:46;100435.75;;;3.75;100.00
26043;BME280;13818;52.156;5.382;2023-03-12T08:34:13;100432.91;;;3.83;100.00
26043;BME280;13818;52.156;5.382;2023-03-12T08:36:40;100434.63;;;3.85;100.00
26043;BME280;13818;52.156;5.382;2023-03-12T08:39:07;100438.88;;;3.91;100.00
26043;BME280;13818;52.156;5.382;2023-03-12T08:41:34;100433.38;;;4.00;100.00
26043;BME280;13818;52.156;5.382;2023-03-12T08:44:01;100436.53;;;4.13;100.00
26043;BME280;13818;52.156;5.382;2023-03-12T08:46:27;100438.25;;;4.16;100.00
26043;BME280;13818;52.156;5.382;2023-03-12T08:48:54;100437.28;;;4.20;100.00
26043;BME280;13818;52.156;5.382;2023-03-12T08:51:21;100445.94;;;4.23;100.00
26043;BME280;13818;52.156;5.382;2023-03-12T08:53:48;100448.78;;;4.16;100.00
26043;BME280;13818;52.156;5.382;2023-03-12T08:56:14;100427.25;;;4.33;100.00
26043;BME280;13818;52.156;5.382;2023-03-12T08:58:42;100440.19;;;4.42;100.00
26043;BME280;13818;52.156;5.382;2023-03-12T09:01:09;100452.44;;;4.45;100.00
26043;BME280;13818;52.156;5.382;2023-03-12T09:03:36;100447.78;;;4.54;100.00
26043;BME280;13818;52.156;5.382;2023-03-12T09:06:04;100442.38;;;4.59;100.00
26043;BME280;13818;52.156;5.382;2023-03-12T09:08:31;100443.84;;;4.69;100.00
26043;BME280;13818;52.156;5.382;2023-03-12T09:10:58;100445.19;;;4.84;100.00
26043;BME280;13818;52.156;5.382;2023-03-12T09:13:26;100442.41;;;4.89;100.00
26043;BME280;13818;52.156;5.382;2023-03-12T09:15:58;100438.44;;;5.04;100.00
26043;BME280;13818;52.156;5.382;2023-03-12T09:18:25;100428.47;;;5.14;100.00
26043;BME280;13818;52.156;5.382;2023-03-12T09:20:51;100432.50;;;5.27;100.00
26043;BME280;13818;52.156;5.382;2023-03-12T09:23:18;100436.88;;;5.28;100.00
26043;BME280;13818;52.156;5.382;2023-03-12T09:25:45;100432.31;;;5.33;100.00
26043;BME280;13818;52.156;5.382;2023-03-12T09:28:12;100425.69;;;5.47;100.00
26043;BME280;13818;52.156;5.382;2023-03-12T09:30:39;100427.03;;;5.60;100.00
26043;BME280;13818;52.156;5.382;2023-03-12T09:33:07;100428.47;;;5.70;100.00
26043;BME280;13818;52.156;5.382;2023-03-12T09:35:34;100436.22;;;5.77;100.00
26043;BME280;13818;52.156;5.382;2023-03-12T09:38:01;100436.31;;;5.74;100.00
26043;BME280;13818;52.156;5.382;2023-03-12T09:40:29;100436.47;;;5.96;100.00
26043;BME280;13818;52.156;5.382;2023-03-12T09:42:58;100438.63;;;6.11;100.00
26043;BME280;13818;52.156;5.382;2023-03-12T09:45:30;100445.38;;;6.20;100.00
26043;BME280;13818;52.156;5.382;2023-03-12T09:48:00;100440.69;;;6.28;100.00
26043;BME280;13818;52.156;5.382;2023-03-12T09:50:29;100440.91;;;6.47;100.00
26043;BME280;13818;52.156;5.382;2023-03-12T09:52:59;100442.22;;;6.61;100.00
26043;BME280;13818;52.156;5.382;2023-03-12T09:55:27;100443.59;;;6.71;100.00
26043;BME280;13818;52.156;5.382;2023-03-12T09:57:57;100446.59;;;6.86;100.00
26043;BME280;13818;52.156;5.382;2023-03-12T10:00:28;100439.47;;;6.88;100.00
26043;BME280;13818;52.156;5.382;2023-03-12T10:05:59;100449.66;;;6.98;100.00
26043;BME280;13818;52.156;5.382;2023-03-12T10:08:35;100451.84;;;7.11;100.00
26043;BME280;13818;52.156;5.382;2023-03-12T10:11:12;100450.84;;;7.13;100.00
26043;BME280;13818;52.156;5.382;2023-03-12T10:13:52;100453.72;;;7.31;100.00
26043;BME280;13818;52.156;5.382;2023-03-12T10:16:38;100460.13;;;7.25;100.00
26043;BME280;13818;52.156;5.382;2023-03-12T10:19:20;100459.38;;;7.45;100.00
26043;BME280;13818;52.156;5.382;2023-03-12T10:21:54;100457.31;;;7.52;100.00
26043;BME280;13818;52.156;5.382;2023-03-12T10:24:33;100454.13;;;7.66;100.00
26043;BME280;13818;52.156;5.382;2023-03-12T10:27:10;100455.53;;;7.75;100.00
26043;BME280;13818;52.156;5.382;2023-03-12T10:29:40;100450.59;;;7.88;100.00
26043;BME280;13818;52.156;5.382;2023-03-12T10:32:07;100454.72;;;7.95;100.00
26043;BME280;13818;52.156;5.382;2023-03-12T10:34:44;100461.13;;;8.11;100.00
26043;BME280;13818;52.156;5.382;2023-03-12T10:37:16;100443.53;;;8.09;100.00
26043;BME280;13818;52.156;5.382;2023-03-12T10:39:44;100450.47;;;8.34;100.00
26043;BME280;13818;52.156;5.382;2023-03-12T10:42:14;100466.34;;;8.56;100.00
26043;BME280;13818;52.156;5.382;2023-03-12T10:44:41;100465.34;;;8.58;100.00
26043;BME280;13818;52.156;5.382;2023-03-12T10:47:18;100451.06;;;8.61;100.00
26043;BME280;13818;52.156;5.382;2023-03-12T10:49:47;100448.50;;;8.78;100.00
26043;BME280;13818;52.156;5.382;2023-03-12T10:52:17;100445.34;;;8.70;100.00
26043;BME280;13818;52.156;5.382;2023-03-12T10:54:46;100437.69;;;8.83;100.00
26043;BME280;13818;52.156;5.382;2023-03-12T10:57:13;100449.50;;;8.97;100.00
26043;BME280;13818;52.156;5.382;2023-03-12T10:59:42;100453.16;;;9.13;100.00
26043;BME280;13818;52.156;5.382;2023-03-12T11:02:27;100453.38;;;9.27;100.00
26043;BME280;13818;52.156;5.382;2023-03-12T11:04:55;100441.53;;;9.35;100.00
26043;BME280;13818;52.156;5.382;2023-03-12T11:07:24;100457.66;;;9.49;100.00
26043;BME280;13818;52.156;5.382;2023-03-12T11:10:15;100447.47;;;9.59;100.00
26043;BME280;13818;52.156;5.382;2023-03-12T11:12:58;100449.34;;;9.38;100.00
26043;BME280;13818;52.156;5.382;2023-03-12T11:15:27;100453.31;;;9.48;100.00
26043;BME280;13818;52.156;5.382;2023-03-12T11:18:22;100461.22;;;9.50;100.00
26043;BME280;13818;52.156;5.382;2023-03-12T11:20:51;100462.66;;;9.57;100.00
26043;BME280;13818;52.156;5.382;2023-03-12T11:23:22;100480.25;;;9.40;100.00
26043;BME280;13818;52.156;5.382;2023-03-12T11:25:54;100467.31;;;9.14;100.00
26043;BME280;13818;52.156;5.382;2023-03-12T11:28:23;100473.94;;;9.24;100.00
26043;BME280;13818;52.156;5.382;2023-03-12T11:30:52;100487.75;;;9.32;100.00
26043;BME280;13818;52.156;5.382;2023-03-12T11:33:19;100475.00;;;9.39;100.00
26043;BME280;13818;52.156;5.382;2023-03-12T11:35:51;100477.19;;;9.31;100.00
26043;BME280;13818;52.156;5.382;2023-03-12T11:38:28;100476.66;;;9.41;100.00
26043;BME280;13818;52.156;5.382;2023-03-12T11:41:03;100470.84;;;9.52;100.00
26043;BME280;13818;52.156;5.382;2023-03-12T11:43:42;100470.75;;;9.54;100.00
26043;BME280;13818;52.156;5.382;2023-03-12T11:46:28;100471.91;;;9.29;100.00
26043;BME280;13818;52.156;5.382;2023-03-12T11:49:08;100466.91;;;9.42;100.00
26043;BME280;13818;52.156;5.382;2023-03-12T11:51:43;100461.00;;;9.35;100.00
26043;BME280;13818;52.156;5.382;2023-03-12T11:54:43;100464.44;;;9.56;100.00
26043;BME280;13818;52.156;5.382;2023-03-12T11:57:19;100461.47;;;9.63;100.00
26043;BME280;13818;52.156;5.382;2023-03-12T12:00:00;100460.25;;;9.70;100.00
26043;BME280;13818;52.156;5.382;2023-03-12T12:02:58;100451.34;;;9.71;100.00
26043;BME280;13818;52.156;5.382;2023-03-12T12:05:35;100446.91;;;9.89;100.00
26043;BME280;13818;52.156;5.382;2023-03-12T12:10:59;100447.75;;;9.89;100.00
26043;BME280;13818;52.156;5.382;2023-03-12T12:13:32;100440.06;;;9.83;100.00
26043;BME280;13818;52.156;5.382;2023-03-12T12:16:18;100451.84;;;9.97;100.00
26043;BME280;13818;52.156;5.382;2023-03-12T12:19:01;100439.72;;;9.91;100.00
26043;BME280;13818;52.156;5.382;2023-03-12T12:21:49;100446.50;;;9.97;100.00
26043;BME280;13818;52.156;5.382;2023-03-12T12:24:30;100442.97;;;9.79;100.00
26043;BME280;13818;52.156;5.382;2023-03-12T12:27:11;100444.03;;;9.93;100.00
26043;BME280;13818;52.156;5.382;2023-03-12T12:29:52;100437.34;;;9.85;100.00
26043;BME280;13818;52.156;5.382;2023-03-12T12:32:28;100429.03;;;10.08;100.00
26043;BME280;13818;52.156;5.382;2023-03-12T12:35:07;100424.44;;;10.12;100.00
26043;BME280;13818;52.156;5.382;2023-03-12T12:37:46;100422.78;;;10.27;100.00
26043;BME280;13818;52.156;5.382;2023-03-12T12:40:19;100415.13;;;10.38;100.00
26043;BME280;13818;52.156;5.382;2023-03-12T12:42:53;100420.84;;;10.48;100.00
26043;BME280;13818;52.156;5.382;2023-03-12T12:45:22;100428.72;;;10.67;100.00
26043;BME280;13818;52.156;5.382;2023-03-12T12:47:53;100434.75;;;10.71;100.00
26043;BME280;13818;52.156;5.382;2023-03-12T12:50:23;100422.28;;;10.71;100.00
26043;BME280;13818;52.156;5.382;2023-03-12T12:52:55;100429.34;;;10.72;100.00
26043;BME280;13818;52.156;5.382;2023-03-12T12:55:25;100422.50;;;10.84;100.00
26043;BME280;13818;52.156;5.382;2023-03-12T12:57:58;100411.28;;;10.62;100.00
26043;BME280;13818;52.156;5.382;2023-03-12T13:00:38;100407.13;;;10.89;100.00
26043;BME280;13818;52.156;5.382;2023-03-12T13:03:12;100408.34;;;11.16;100.00
26043;BME280;13818;52.156;5.382;2023-03-12T13:05:44;100407.47;;;11.15;100.00
26043;BME280;13818;52.156;5.382;2023-03-12T13:11:26;100381.84;;;11.29;100.00